Serenade Of The Seas — C6FV8 — position and weather

sailwx.info

Track history (hours):
 
Tides and Currents Weather Stations Pressure Air Temp Water Temp Dewpoint Dewpoint Depression Visibility Wind Speed Wind Dir Waves Ship Positions

Serenade Of The Seas

Operator: Royal Caribbean Cruises Ltd

Last reported at 2019-Jul-16 00:53 UTC. Time now 2019-Jul-16 02:26 UTC.
Position N 60°02' E 029°24'.

Length 294 m; draft 8.5 m.

Type: Ship. MMSI: 311492000.

Date/timePositionNaut miles runAvg speedWind from/ knotsBaromVisibWave heightAir tempDewpointWater temp
2019-Jul-16 00:53N 60°02' E 029°24'411.2
2019-Jul-16 00:30N 60°02' E 029°16'510.9
2019-Jul-16 00:00N 60°02' E 029°05'611.4
2019-Jul-15 23:30N 60°02' E 028°53'611.4
2019-Jul-15 23:00N 60°02' E 028°42'611.7
2019-Jul-15 22:30N 60°03' E 028°30'611.4
2019-Jul-15 22:01N 60°05' E 028°20'611.2
2019-Jul-15 21:30N 60°08' E 028°10'611.5
2019-Jul-15 21:00N 60°09' E 027°59'611.4
2019-Jul-15 20:30N 60°11' E 027°48'611.7
2019-Jul-15 20:00N 60°08' E 027°37'611.8
2019-Jul-15 19:31N 60°05' E 027°27'611.7
2019-Jul-15 19:00N 60°02' E 027°17'611.9
2019-Jul-15 18:30N 59°59' E 027°07'611.4
2019-Jul-15 18:00N 59°58' E 026°56'4310.7
2019-Jul-15 18:00N 59°54' E 026°54'715.4 190 / 151006.0 17.0
2019-Jul-15 17:30N 59°60' E 026°44'611.9
2019-Jul-15 17:00N 59°59' E 026°32'611.9
2019-Jul-15 16:30N 59°57' E 026°21'612.0
2019-Jul-15 15:59N 59°56' E 026°09'712.6
2019-Jul-15 15:27N 59°54' E 025°56'612.2
2019-Jul-15 15:00N 59°52' E 025°45'711.7
2019-Jul-15 14:24N 59°51' E 025°32'511.4
2019-Jul-15 14:00N 59°50' E 025°23'611.3
2019-Jul-15 13:30N 59°49' E 025°12'611.6
2019-Jul-15 13:00N 59°48' E 025°01'611.2
2019-Jul-15 12:30N 59°46' E 024°50'611.1
2019-Jul-15 12:00N 59°45' E 024°39'611.1
2019-Jul-15 11:30N 59°44' E 024°28'611.0
2019-Jul-15 10:59N 59°42' E 024°18'511.1
2019-Jul-15 10:30N 59°41' E 024°08'611.3
2019-Jul-15 10:00N 59°38' E 023°57'611.2
2019-Jul-15 09:30N 59°36' E 023°47'611.3
2019-Jul-15 09:00N 59°35' E 023°36'611.7
2019-Jul-15 08:30N 59°33' E 023°25'611.5
2019-Jul-15 08:00N 59°32' E 023°14'611.2
2019-Jul-15 07:30N 59°30' E 023°04'611.5
2019-Jul-15 07:00N 59°28' E 022°53'611.6
2019-Jul-15 06:27N 59°26' E 022°41'1011.9
2019-Jul-15 05:38N 59°23' E 022°23'112.2
2019-Jul-15 05:30N 59°23' E 022°20'612.2
2019-Jul-15 05:00N 59°23' E 022°08'612.1
2019-Jul-15 04:30N 59°23' E 021°56'711.9
2019-Jul-15 03:57N 59°24' E 021°43'512.0
2019-Jul-15 03:30N 59°24' E 021°32'612.0
2019-Jul-15 03:00N 59°24' E 021°21'612.0
2019-Jul-15 02:30N 59°24' E 021°09'611.8
2019-Jul-15 01:59N 59°24' E 020°57'2711.4
2019-Jul-14 23:35N 59°30' E 020°04'111.9
2019-Jul-14 23:30N 59°31' E 020°04'1011.3
2019-Jul-14 22:35N 59°40' E 019°53'112.3
2019-Jul-14 22:30N 59°40' E 019°51'711.9
2019-Jul-14 21:53N 59°46' E 019°42'510.5
2019-Jul-14 21:25N 59°47' E 019°33'711.5
2019-Jul-14 20:49N 59°45' E 019°19'413.9
2019-Jul-14 20:30N 59°44' E 019°11'915.2
2019-Jul-14 19:56N 59°40' E 018°56'6 9.9
2019-Jul-14 19:22N 59°36' E 018°48'711.1
2019-Jul-14 18:44N 59°33' E 018°36'3 9.9
2019-Jul-14 18:27N 59°31' E 018°31'410.2
2019-Jul-14 18:00N 59°28' E 018°26'4 8.4
2019-Jul-14 17:30N 59°23' E 018°27'3 6.6
2019-Jul-14 17:00N 59°22' E 018°21'510.7
2019-Jul-14 16:30N 59°20' E 018°11'2 3.5
2019-Jul-14 15:58N 59°21' E 018°08'0 0.0
2019-Jul-14 15:25N 59°21' E 018°08'0 0.0
2019-Jul-14 14:58N 59°21' E 018°08'0 0.0
2019-Jul-14 14:28N 59°21' E 018°08'0 0.0
2019-Jul-14 13:58N 59°21' E 018°08'0 0.0
2019-Jul-14 13:28N 59°21' E 018°08'0 0.0
2019-Jul-14 12:55N 59°21' E 018°08'0 0.0
2019-Jul-14 12:28N 59°21' E 018°08'0 0.0
2019-Jul-14 11:58N 59°21' E 018°08'0 0.0
2019-Jul-14 11:25N 59°21' E 018°08'0 0.0
2019-Jul-14 10:58N 59°21' E 018°08'0 0.0
2019-Jul-14 10:28N 59°21' E 018°08'0 0.0
2019-Jul-14 09:59N 59°21' E 018°08'0 0.0
2019-Jul-14 09:25N 59°21' E 018°08'0 0.0
2019-Jul-14 08:55N 59°21' E 018°08'0 0.0
2019-Jul-14 08:29N 59°21' E 018°08'0 0.0
2019-Jul-14 07:58N 59°21' E 018°08'0 0.0
2019-Jul-14 07:25N 59°21' E 018°08'0 0.0
2019-Jul-14 06:58N 59°21' E 018°08'0 0.0
2019-Jul-14 06:25N 59°21' E 018°08'0 0.0
2019-Jul-14 05:58N 59°21' E 018°08'2 3.4
2019-Jul-14 05:30N 59°20' E 018°11'510.8
2019-Jul-14 05:00N 59°23' E 018°20'3 6.9
2019-Jul-14 04:30N 59°23' E 018°27'4 8.5
2019-Jul-14 04:00N 59°27' E 018°26'510.4
2019-Jul-14 03:29N 59°32' E 018°32'5 9.7
2019-Jul-14 03:00N 59°34' E 018°40'612.0
2019-Jul-14 02:30N 59°37' E 018°50'510.1
2019-Jul-14 02:00N 59°41' E 018°58'916.6
2019-Jul-14 01:29N 59°44' E 019°13'814.4
2019-Jul-14 00:56N 59°47' E 019°28'613.5
2019-Jul-14 00:28N 59°49' E 019°40'714.4
2019-Jul-14 00:00N 59°45' E 019°51'915.3
2019-Jul-13 23:26N 59°38' E 020°03'1115.7
2019-Jul-13 22:45N 59°36' E 020°24'616.3
2019-Jul-13 22:24N 59°36' E 020°35'615.9
2019-Jul-13 22:00N 59°36' E 020°47'816.1
2019-Jul-13 21:30N 59°32' E 021°02'816.1
2019-Jul-13 21:00N 59°29' E 021°16'816.2
2019-Jul-13 20:30N 59°26' E 021°31'816.5
2019-Jul-13 20:00N 59°26' E 021°47'917.4
2019-Jul-13 19:30N 59°27' E 022°04'917.4
2019-Jul-13 19:00N 59°28' E 022°21'917.5
2019-Jul-13 18:30N 59°31' E 022°37'917.8
2019-Jul-13 18:00N 59°34' E 022°54'917.8
2019-Jul-13 17:30N 59°37' E 023°11'917.8
2019-Jul-13 17:00N 59°39' E 023°28'917.6
2019-Jul-13 16:30N 59°41' E 023°45'917.4
2019-Jul-13 16:00N 59°44' E 024°01'917.1
2019-Jul-13 15:30N 59°46' E 024°17'816.7
2019-Jul-13 15:00N 59°49' E 024°33'816.6
2019-Jul-13 14:30N 59°52' E 024°48'816.0
2019-Jul-13 14:00N 59°59' E 024°57'714.3
2019-Jul-13 13:30N 60°06' E 024°54'3 5.8
2019-Jul-13 13:00N 60°09' E 024°55'0 0.0
2019-Jul-13 12:28N 60°09' E 024°55'0 0.0
2019-Jul-13 11:58N 60°09' E 024°55'0 0.0
2019-Jul-13 11:28N 60°09' E 024°55'0 0.0
2019-Jul-13 10:58N 60°09' E 024°55'0 0.0
2019-Jul-13 10:28N 60°09' E 024°55'0 0.0
2019-Jul-13 09:58N 60°09' E 024°55'0 0.0
2019-Jul-13 09:28N 60°09' E 024°55'0 0.0
2019-Jul-13 08:58N 60°09' E 024°55'0 0.0
2019-Jul-13 08:28N 60°09' E 024°55'0 0.0
2019-Jul-13 07:58N 60°09' E 024°55'0 0.0
2019-Jul-13 07:28N 60°09' E 024°55'0 0.0
2019-Jul-13 06:58N 60°09' E 024°55'0 0.0
2019-Jul-13 06:28N 60°09' E 024°55'0 0.0
2019-Jul-13 05:58N 60°09' E 024°55'0 0.0
2019-Jul-13 05:28N 60°09' E 024°55'0 0.0
2019-Jul-13 04:58N 60°09' E 024°55'0 0.0
2019-Jul-13 04:28N 60°09' E 024°55'0 0.0
2019-Jul-13 04:01N 60°09' E 024°55'1 1.7
2019-Jul-13 03:30N 60°08' E 024°54'4 8.0
2019-Jul-13 03:00N 60°04' E 024°53'713.4
2019-Jul-13 02:30N 59°59' E 025°02'713.1
2019-Jul-13 02:00N 59°57' E 025°15'917.5
2019-Jul-13 01:31N 59°53' E 025°31'918.3
2019-Jul-13 01:00N 59°55' E 025°49'1018.5
2019-Jul-13 00:28N 59°58' E 026°08'918.5
2019-Jul-13 00:01N 60°00' E 026°24'917.2
2019-Jul-12 23:30N 60°01' E 026°41'918.0
2019-Jul-12 23:00N 59°59' E 026°59'917.4
2019-Jul-12 22:29N 60°03' E 027°16'918.0
2019-Jul-12 22:01N 60°08' E 027°30'917.6
2019-Jul-12 21:30N 60°12' E 027°46'917.2
2019-Jul-12 21:01N 60°10' E 028°03'917.7
2019-Jul-12 20:30N 60°07' E 028°19'816.9
2019-Jul-12 20:00N 60°03' E 028°34'917.9
2019-Jul-12 19:30N 60°02' E 028°53'1017.6
2019-Jul-12 18:56N 60°02' E 029°12'1711.9
2019-Jul-12 17:31N 59°59' E 029°46'0 7.4
2019-Jul-12 17:30N 59°59' E 029°46'5 9.6
2019-Jul-12 17:00N 59°56' E 029°54'5 9.7
2019-Jul-12 16:30N 59°56' E 030°04'4 7.5
2019-Jul-12 16:00N 59°57' E 030°11'0 0.3
2019-Jul-12 15:29N 59°57' E 030°11'0 0.0
2019-Jul-12 14:56N 59°57' E 030°11'0 0.0
2019-Jul-12 14:29N 59°57' E 030°11'0 0.0
2019-Jul-12 13:59N 59°57' E 030°11'0 0.0
2019-Jul-12 13:29N 59°57' E 030°11'0 0.0
2019-Jul-12 12:59N 59°57' E 030°11'0 0.0
2019-Jul-12 12:29N 59°57' E 030°11'0 0.0
2019-Jul-12 11:59N 59°57' E 030°11'0 0.0
2019-Jul-12 11:29N 59°57' E 030°11'0 0.0
2019-Jul-12 10:59N 59°57' E 030°11'0 0.0
2019-Jul-12 10:29N 59°57' E 030°11'0 0.0
2019-Jul-12 09:59N 59°57' E 030°11'0 0.0
2019-Jul-12 09:29N 59°57' E 030°11'0 0.0
2019-Jul-12 08:59N 59°57' E 030°11'0 0.0
2019-Jul-12 08:29N 59°57' E 030°11'0 0.0
2019-Jul-12 07:59N 59°57' E 030°11'0 0.0
2019-Jul-12 07:29N 59°57' E 030°11'0 0.0
2019-Jul-12 06:59N 59°57' E 030°11'0 0.0
2019-Jul-12 06:29N 59°57' E 030°11'0 0.0
2019-Jul-12 05:59N 59°57' E 030°11'0 0.0
2019-Jul-12 05:29N 59°57' E 030°11'0 0.0
2019-Jul-12 04:59N 59°57' E 030°11'0 0.0
2019-Jul-12 04:29N 59°57' E 030°11'0 0.0
2019-Jul-12 03:59N 59°57' E 030°11'0 0.0
2019-Jul-12 03:29N 59°57' E 030°11'0 0.0
2019-Jul-12 02:56N 59°57' E 030°11'0 0.0
2019-Jul-12 01:59N 59°57' E 030°11'0 0.0
2019-Jul-12 01:26N 59°57' E 030°11'0 0.0
2019-Jul-12 00:59N 59°57' E 030°11'0 0.0
2019-Jul-12 00:29N 59°57' E 030°11'0 0.0
2019-Jul-11 23:59N 59°57' E 030°11'0 0.0
2019-Jul-11 23:29N 59°57' E 030°11'0 0.0
2019-Jul-11 22:59N 59°57' E 030°11'0 0.0
2019-Jul-11 22:29N 59°57' E 030°11'0 0.0
2019-Jul-11 21:59N 59°57' E 030°11'0 0.0
2019-Jul-11 21:29N 59°57' E 030°11'0 0.0
2019-Jul-11 20:59N 59°57' E 030°11'0 0.0
2019-Jul-11 20:29N 59°57' E 030°11'0 0.0
2019-Jul-11 19:59N 59°57' E 030°11'0 0.0
2019-Jul-11 19:29N 59°57' E 030°11'0 0.0
2019-Jul-11 18:59N 59°57' E 030°11'0 0.0
2019-Jul-11 18:29N 59°57' E 030°11'0 0.0
2019-Jul-11 17:59N 59°57' E 030°11'0 0.0
2019-Jul-11 17:29N 59°57' E 030°11'0 0.0
2019-Jul-11 16:59N 59°57' E 030°11'0 0.0
2019-Jul-11 16:29N 59°57' E 030°11'0 0.0
2019-Jul-11 15:59N 59°57' E 030°11'0 0.0
2019-Jul-11 15:29N 59°57' E 030°11'0 0.0
2019-Jul-11 14:59N 59°57' E 030°11'0 0.0
2019-Jul-11 14:29N 59°57' E 030°11'0 0.0
2019-Jul-11 13:59N 59°57' E 030°11'0 0.0
2019-Jul-11 13:29N 59°57' E 030°11'0 0.0
2019-Jul-11 12:59N 59°57' E 030°11'0 0.0
2019-Jul-11 12:29N 59°57' E 030°11'0 0.0
2019-Jul-11 11:59N 59°57' E 030°11'0 0.0
2019-Jul-11 11:29N 59°57' E 030°11'0 0.0
2019-Jul-11 10:59N 59°57' E 030°11'0 0.0
2019-Jul-11 10:26N 59°57' E 030°11'0 0.0
2019-Jul-11 09:59N 59°57' E 030°11'0 0.0
2019-Jul-11 09:29N 59°57' E 030°11'0 0.0
2019-Jul-11 08:59N 59°57' E 030°11'0 0.0
2019-Jul-11 08:29N 59°57' E 030°11'0 0.0
2019-Jul-11 07:56N 59°57' E 030°11'0 0.0
2019-Jul-11 07:29N 59°57' E 030°11'0 0.0
2019-Jul-11 06:59N 59°57' E 030°11'0 0.0
2019-Jul-11 06:26N 59°57' E 030°11'0 0.0
2019-Jul-11 05:59N 59°57' E 030°11'0 0.0
2019-Jul-11 05:29N 59°57' E 030°11'0 0.0
2019-Jul-11 04:59N 59°57' E 030°11'0 0.0
2019-Jul-11 04:29N 59°57' E 030°11'0 0.0
2019-Jul-11 04:01N 59°57' E 030°11'2 3.8
2019-Jul-11 03:30N 59°57' E 030°07'5 9.9
2019-Jul-11 03:01N 59°56' E 029°58'5 9.8
2019-Jul-11 02:30N 59°58' E 029°49'2510.1
2019-Jul-10 23:59N 60°02' E 028°58'715.0
2019-Jul-10 23:30N 60°02' E 028°44'815.2
2019-Jul-10 23:00N 60°03' E 028°29'715.1
2019-Jul-10 22:30N 60°07' E 028°16'815.2
2019-Jul-10 22:00N 60°09' E 028°01'815.2
2019-Jul-10 21:30N 60°11' E 027°47'815.5
2019-Jul-10 21:00N 60°07' E 027°33'815.4
2019-Jul-10 20:30N 60°03' E 027°20'815.6
2019-Jul-10 20:00N 59°59' E 027°07'815.4
2019-Jul-10 19:30N 59°59' E 026°52'816.1
2019-Jul-10 19:00N 59°59' E 026°36'815.9
2019-Jul-10 18:30N 59°57' E 026°20'816.0
2019-Jul-10 18:00N 59°55' E 026°05'816.0
2019-Jul-10 17:30N 59°52' E 025°50'816.0
2019-Jul-10 17:00N 59°50' E 025°35'816.1
2019-Jul-10 16:30N 59°50' E 025°19'816.4
2019-Jul-10 16:00N 59°48' E 025°03'815.7
2019-Jul-10 15:31N 59°44' E 024°50'816.0
2019-Jul-10 15:00N 59°37' E 024°41'714.7
2019-Jul-10 14:30N 59°30' E 024°45'3 6.5
2019-Jul-10 14:00N 59°27' E 024°46'0 0.0
2019-Jul-10 13:30N 59°27' E 024°46'0 0.0
2019-Jul-10 13:00N 59°27' E 024°46'0 0.0
2019-Jul-10 12:30N 59°27' E 024°46'0 0.0
2019-Jul-10 12:00N 59°27' E 024°46'0 0.0
2019-Jul-10 11:30N 59°27' E 024°46'0 0.0
2019-Jul-10 11:00N 59°27' E 024°46'0 0.0
2019-Jul-10 10:30N 59°27' E 024°46'0 0.0
2019-Jul-10 10:00N 59°27' E 024°46'0 0.0
2019-Jul-10 09:30N 59°27' E 024°46'0 0.0
2019-Jul-10 08:57N 59°27' E 024°46'0 0.0
2019-Jul-10 08:30N 59°27' E 024°46'0 0.0
2019-Jul-10 08:00N 59°27' E 024°46'0 0.0
2019-Jul-10 07:30N 59°27' E 024°46'0 0.0
2019-Jul-10 07:00N 59°27' E 024°46'0 0.0
2019-Jul-10 06:31N 59°27' E 024°46'1 2.8
2019-Jul-10 06:01N 59°28' E 024°46'612.0
2019-Jul-10 05:30N 59°30' E 024°34'714.5
2019-Jul-10 05:00N 59°30' E 024°20'815.3
2019-Jul-10 04:30N 59°30' E 024°05'815.7
2019-Jul-10 04:00N 59°30' E 023°49'816.0
2019-Jul-10 03:31N 59°30' E 023°33'916.0
2019-Jul-10 02:55N 59°31' E 023°15'615.7
2019-Jul-10 02:31N 59°29' E 023°03'1116.0
2019-Jul-10 01:49N 59°26' E 022°42'516.0
2019-Jul-10 01:29N 59°24' E 022°32'129 3.4
2019-Jul-08 12:00N 57°48' E 019°48'54 9.1 350 / 181002.0 13.0 15.0
2019-Jul-08 06:00N 58°42' E 020°00'58 9.4 350 / 211000.0 13.0 14.0
2019-Jul-07 23:46N 59°40' E 019°51'3 9.7
2019-Jul-07 23:30N 59°42' E 019°48'5 9.7
2019-Jul-07 23:00N 59°46' E 019°42'5 8.9
2019-Jul-07 22:30N 59°47' E 019°34'5 9.4
2019-Jul-07 21:58N 59°46' E 019°24'712.7
2019-Jul-07 21:24N 59°44' E 019°11'714.2
2019-Jul-07 20:55N 59°41' E 018°58'7 9.2
2019-Jul-07 20:09N 59°36' E 018°48'3 8.8
2019-Jul-07 19:50N 59°35' E 018°43'5 8.9
2019-Jul-07 19:18N 59°33' E 018°35'3 8.9
2019-Jul-07 18:58N 59°31' E 018°30'4 8.3
2019-Jul-07 18:30N 59°28' E 018°26'3 6.2
2019-Jul-07 18:00N 59°25' E 018°25'3 6.0
2019-Jul-07 17:30N 59°21' E 018°26'4 8.1
2019-Jul-07 17:00N 59°22' E 018°18'4 8.4
2019-Jul-07 16:30N 59°20' E 018°10'1 2.6
2019-Jul-07 15:57N 59°21' E 018°08'0 0.0
2019-Jul-07 15:27N 59°21' E 018°08'0 0.0
2019-Jul-07 14:57N 59°21' E 018°08'0 0.0
2019-Jul-07 14:27N 59°21' E 018°08'0 0.0
2019-Jul-07 13:57N 59°21' E 018°08'0 0.0
2019-Jul-07 13:30N 59°21' E 018°08'0 0.0
2019-Jul-07 12:51N 59°21' E 018°08'0 0.0
2019-Jul-07 12:27N 59°21' E 018°08'0 0.0
2019-Jul-07 11:57N 59°21' E 018°08'0 0.0
2019-Jul-07 11:27N 59°21' E 018°08'0 0.0
2019-Jul-07 10:57N 59°21' E 018°08'0 0.0
2019-Jul-07 10:21N 59°21' E 018°08'0 0.0
2019-Jul-07 09:57N 59°21' E 018°08'0 0.0
2019-Jul-07 09:27N 59°21' E 018°08'0 0.0
2019-Jul-07 08:57N 59°21' E 018°08'0 0.0
2019-Jul-07 08:30N 59°21' E 018°08'0 0.0
2019-Jul-07 07:57N 59°21' E 018°08'0 0.0
2019-Jul-07 07:27N 59°21' E 018°08'0 0.0
2019-Jul-07 07:00N 59°21' E 018°08'0 0.0
2019-Jul-07 06:27N 59°21' E 018°08'0 0.0
2019-Jul-07 05:57N 59°21' E 018°08'1 2.0
2019-Jul-07 05:30N 59°20' E 018°09'5 9.3
2019-Jul-07 05:00N 59°23' E 018°17'5 9.8
2019-Jul-07 04:31N 59°22' E 018°27'5 9.9
2019-Jul-07 04:00N 59°26' E 018°24'710.8
2019-Jul-07 03:19N 59°32' E 018°33'310.0
2019-Jul-07 03:00N 59°34' E 018°38'1111.1
2019-Jul-07 02:00N 59°40' E 018°57'714.8
2019-Jul-07 01:30N 59°44' E 019°09'816.0
2019-Jul-07 01:00N 59°47' E 019°24'713.9
2019-Jul-07 00:30N 59°48' E 019°37'1516.1
2019-Jul-06 23:34N 59°39' E 020°01'2916.5
2019-Jul-06 21:48N 59°33' E 020°58'517.1
2019-Jul-06 21:31N 59°31' E 021°07'816.8
2019-Jul-06 21:00N 59°28' E 021°22'816.3
2019-Jul-06 20:30N 59°26' E 021°38'1316.7
2019-Jul-06 19:43N 59°27' E 022°04'316.7
2019-Jul-06 19:30N 59°27' E 022°10'916.3
2019-Jul-06 18:58N 59°29' E 022°27'816.5
2019-Jul-06 18:30N 59°32' E 022°41'816.2
2019-Jul-06 18:00N 59°34' E 022°56'816.4
2019-Jul-06 17:30N 59°36' E 023°12'816.6
2019-Jul-06 17:00N 59°38' E 023°29'1117.2
2019-Jul-06 16:22N 59°41' E 023°49'617.4
2019-Jul-06 16:00N 59°43' E 024°01'917.4
2019-Jul-06 15:30N 59°45' E 024°18'917.2
2019-Jul-06 15:00N 59°48' E 024°34'917.0
2019-Jul-06 14:30N 59°52' E 024°48'816.4
2019-Jul-06 14:00N 59°60' E 024°57'713.6
2019-Jul-06 13:30N 60°06' E 024°54'3 5.5
2019-Jul-06 12:59N 60°09' E 024°55'0 0.0
2019-Jul-06 12:29N 60°09' E 024°55'0 0.0
2019-Jul-06 11:59N 60°09' E 024°55'0 0.0
2019-Jul-06 11:29N 60°09' E 024°55'0 0.0
2019-Jul-06 10:59N 60°09' E 024°55'0 0.0
2019-Jul-06 10:29N 60°09' E 024°55'0 0.0
2019-Jul-06 09:59N 60°09' E 024°55'0 0.0
2019-Jul-06 09:29N 60°09' E 024°55'0 0.0
2019-Jul-06 08:59N 60°09' E 024°55'0 0.0
2019-Jul-06 08:29N 60°09' E 024°55'0 0.0
2019-Jul-06 07:59N 60°09' E 024°55'0 0.0
2019-Jul-06 07:29N 60°09' E 024°55'0 0.0
2019-Jul-06 06:59N 60°09' E 024°55'0 0.0
2019-Jul-06 06:29N 60°09' E 024°55'0 0.0
2019-Jul-06 05:56N 60°09' E 024°55'0 0.0
2019-Jul-06 05:29N 60°09' E 024°55'0 0.0
2019-Jul-06 04:59N 60°09' E 024°55'0 0.0
2019-Jul-06 04:29N 60°09' E 024°55'0 0.0
2019-Jul-06 03:59N 60°09' E 024°55'0 0.2
2019-Jul-06 03:31N 60°09' E 024°55'2 4.4
2019-Jul-06 03:00N 60°07' E 024°54'713.6
2019-Jul-06 02:30N 60°00' E 024°58'1615.6
2019-Jul-06 01:30N 59°54' E 025°27'  
Track history (hours):
 
Tides and Currents Weather Stations Pressure Air Temp Water Temp Dewpoint Dewpoint Depression Visibility Wind Speed Wind Dir Waves Ship Positions

Serenade Of The Seas

Operator: Royal Caribbean Cruises Ltd

Last reported at 2019-Jul-16 00:53 UTC. Time now 2019-Jul-16 02:26 UTC.
Position N 60°02' E 029°24'.

Length 294 m; draft 8.5 m.

Type: Ship. MMSI: 311492000.

Date/timePositionNaut miles runAvg speedWind from/ knotsBaromVisibWave heightAir tempDewpointWater temp
2019-Jul-16 00:53N 60°02' E 029°24'411.2
2019-Jul-16 00:30N 60°02' E 029°16'510.9
2019-Jul-16 00:00N 60°02' E 029°05'611.4
2019-Jul-15 23:30N 60°02' E 028°53'611.4
2019-Jul-15 23:00N 60°02' E 028°42'611.7
2019-Jul-15 22:30N 60°03' E 028°30'611.4
2019-Jul-15 22:01N 60°05' E 028°20'611.2
2019-Jul-15 21:30N 60°08' E 028°10'611.5
2019-Jul-15 21:00N 60°09' E 027°59'611.4
2019-Jul-15 20:30N 60°11' E 027°48'611.7
2019-Jul-15 20:00N 60°08' E 027°37'611.8
2019-Jul-15 19:31N 60°05' E 027°27'611.7
2019-Jul-15 19:00N 60°02' E 027°17'611.9
2019-Jul-15 18:30N 59°59' E 027°07'611.4
2019-Jul-15 18:00N 59°58' E 026°56'4310.7
2019-Jul-15 18:00N 59°54' E 026°54'715.4 190 / 151006.0 17.0
2019-Jul-15 17:30N 59°60' E 026°44'611.9
2019-Jul-15 17:00N 59°59' E 026°32'611.9
2019-Jul-15 16:30N 59°57' E 026°21'612.0
2019-Jul-15 15:59N 59°56' E 026°09'712.6
2019-Jul-15 15:27N 59°54' E 025°56'612.2
2019-Jul-15 15:00N 59°52' E 025°45'711.7
2019-Jul-15 14:24N 59°51' E 025°32'511.4
2019-Jul-15 14:00N 59°50' E 025°23'611.3
2019-Jul-15 13:30N 59°49' E 025°12'611.6
2019-Jul-15 13:00N 59°48' E 025°01'611.2
2019-Jul-15 12:30N 59°46' E 024°50'611.1
2019-Jul-15 12:00N 59°45' E 024°39'611.1
2019-Jul-15 11:30N 59°44' E 024°28'611.0
2019-Jul-15 10:59N 59°42' E 024°18'511.1
2019-Jul-15 10:30N 59°41' E 024°08'611.3
2019-Jul-15 10:00N 59°38' E 023°57'611.2
2019-Jul-15 09:30N 59°36' E 023°47'611.3
2019-Jul-15 09:00N 59°35' E 023°36'611.7
2019-Jul-15 08:30N 59°33' E 023°25'611.5
2019-Jul-15 08:00N 59°32' E 023°14'611.2
2019-Jul-15 07:30N 59°30' E 023°04'611.5
2019-Jul-15 07:00N 59°28' E 022°53'611.6
2019-Jul-15 06:27N 59°26' E 022°41'1011.9
2019-Jul-15 05:38N 59°23' E 022°23'112.2
2019-Jul-15 05:30N 59°23' E 022°20'612.2
2019-Jul-15 05:00N 59°23' E 022°08'612.1
2019-Jul-15 04:30N 59°23' E 021°56'711.9
2019-Jul-15 03:57N 59°24' E 021°43'512.0
2019-Jul-15 03:30N 59°24' E 021°32'612.0
2019-Jul-15 03:00N 59°24' E 021°21'612.0
2019-Jul-15 02:30N 59°24' E 021°09'611.8
2019-Jul-15 01:59N 59°24' E 020°57'2711.4
2019-Jul-14 23:35N 59°30' E 020°04'111.9
2019-Jul-14 23:30N 59°31' E 020°04'1011.3
2019-Jul-14 22:35N 59°40' E 019°53'112.3
2019-Jul-14 22:30N 59°40' E 019°51'711.9
2019-Jul-14 21:53N 59°46' E 019°42'510.5
2019-Jul-14 21:25N 59°47' E 019°33'711.5
2019-Jul-14 20:49N 59°45' E 019°19'413.9
2019-Jul-14 20:30N 59°44' E 019°11'915.2
2019-Jul-14 19:56N 59°40' E 018°56'6 9.9
2019-Jul-14 19:22N 59°36' E 018°48'711.1
2019-Jul-14 18:44N 59°33' E 018°36'3 9.9
2019-Jul-14 18:27N 59°31' E 018°31'410.2
2019-Jul-14 18:00N 59°28' E 018°26'4 8.4
2019-Jul-14 17:30N 59°23' E 018°27'3 6.6
2019-Jul-14 17:00N 59°22' E 018°21'510.7
2019-Jul-14 16:30N 59°20' E 018°11'2 3.5
2019-Jul-14 15:58N 59°21' E 018°08'0 0.0
2019-Jul-14 15:25N 59°21' E 018°08'0 0.0
2019-Jul-14 14:58N 59°21' E 018°08'0 0.0
2019-Jul-14 14:28N 59°21' E 018°08'0 0.0
2019-Jul-14 13:58N 59°21' E 018°08'0 0.0
2019-Jul-14 13:28N 59°21' E 018°08'0 0.0
2019-Jul-14 12:55N 59°21' E 018°08'0 0.0
2019-Jul-14 12:28N 59°21' E 018°08'0 0.0
2019-Jul-14 11:58N 59°21' E 018°08'0 0.0
2019-Jul-14 11:25N 59°21' E 018°08'0 0.0
2019-Jul-14 10:58N 59°21' E 018°08'0 0.0
2019-Jul-14 10:28N 59°21' E 018°08'0 0.0
2019-Jul-14 09:59N 59°21' E 018°08'0 0.0
2019-Jul-14 09:25N 59°21' E 018°08'0 0.0
2019-Jul-14 08:55N 59°21' E 018°08'0 0.0
2019-Jul-14 08:29N 59°21' E 018°08'0 0.0
2019-Jul-14 07:58N 59°21' E 018°08'0 0.0
2019-Jul-14 07:25N 59°21' E 018°08'0 0.0
2019-Jul-14 06:58N 59°21' E 018°08'0 0.0
2019-Jul-14 06:25N 59°21' E 018°08'0 0.0
2019-Jul-14 05:58N 59°21' E 018°08'2 3.4
2019-Jul-14 05:30N 59°20' E 018°11'510.8
2019-Jul-14 05:00N 59°23' E 018°20'3 6.9
2019-Jul-14 04:30N 59°23' E 018°27'4 8.5
2019-Jul-14 04:00N 59°27' E 018°26'510.4
2019-Jul-14 03:29N 59°32' E 018°32'5 9.7
2019-Jul-14 03:00N 59°34' E 018°40'612.0
2019-Jul-14 02:30N 59°37' E 018°50'510.1
2019-Jul-14 02:00N 59°41' E 018°58'916.6
2019-Jul-14 01:29N 59°44' E 019°13'814.4
2019-Jul-14 00:56N 59°47' E 019°28'613.5
2019-Jul-14 00:28N 59°49' E 019°40'714.4
2019-Jul-14 00:00N 59°45' E 019°51'915.3
2019-Jul-13 23:26N 59°38' E 020°03'1115.7
2019-Jul-13 22:45N 59°36' E 020°24'616.3
2019-Jul-13 22:24N 59°36' E 020°35'615.9
2019-Jul-13 22:00N 59°36' E 020°47'816.1
2019-Jul-13 21:30N 59°32' E 021°02'816.1
2019-Jul-13 21:00N 59°29' E 021°16'816.2
2019-Jul-13 20:30N 59°26' E 021°31'816.5
2019-Jul-13 20:00N 59°26' E 021°47'917.4
2019-Jul-13 19:30N 59°27' E 022°04'917.4
2019-Jul-13 19:00N 59°28' E 022°21'917.5
2019-Jul-13 18:30N 59°31' E 022°37'917.8
2019-Jul-13 18:00N 59°34' E 022°54'917.8
2019-Jul-13 17:30N 59°37' E 023°11'917.8
2019-Jul-13 17:00N 59°39' E 023°28'917.6
2019-Jul-13 16:30N 59°41' E 023°45'917.4
2019-Jul-13 16:00N 59°44' E 024°01'917.1
2019-Jul-13 15:30N 59°46' E 024°17'816.7
2019-Jul-13 15:00N 59°49' E 024°33'816.6
2019-Jul-13 14:30N 59°52' E 024°48'816.0
2019-Jul-13 14:00N 59°59' E 024°57'714.3
2019-Jul-13 13:30N 60°06' E 024°54'3 5.8
2019-Jul-13 13:00N 60°09' E 024°55'0 0.0
2019-Jul-13 12:28N 60°09' E 024°55'0 0.0
2019-Jul-13 11:58N 60°09' E 024°55'0 0.0
2019-Jul-13 11:28N 60°09' E 024°55'0 0.0
2019-Jul-13 10:58N 60°09' E 024°55'0 0.0
2019-Jul-13 10:28N 60°09' E 024°55'0 0.0
2019-Jul-13 09:58N 60°09' E 024°55'0 0.0
2019-Jul-13 09:28N 60°09' E 024°55'0 0.0
2019-Jul-13 08:58N 60°09' E 024°55'0 0.0
2019-Jul-13 08:28N 60°09' E 024°55'0 0.0
2019-Jul-13 07:58N 60°09' E 024°55'0 0.0
2019-Jul-13 07:28N 60°09' E 024°55'0 0.0
2019-Jul-13 06:58N 60°09' E 024°55'0 0.0
2019-Jul-13 06:28N 60°09' E 024°55'0 0.0
2019-Jul-13 05:58N 60°09' E 024°55'0 0.0
2019-Jul-13 05:28N 60°09' E 024°55'0 0.0
2019-Jul-13 04:58N 60°09' E 024°55'0 0.0
2019-Jul-13 04:28N 60°09' E 024°55'0 0.0
2019-Jul-13 04:01N 60°09' E 024°55'1 1.7
2019-Jul-13 03:30N 60°08' E 024°54'4 8.0
2019-Jul-13 03:00N 60°04' E 024°53'713.4
2019-Jul-13 02:30N 59°59' E 025°02'713.1
2019-Jul-13 02:00N 59°57' E 025°15'917.5
2019-Jul-13 01:31N 59°53' E 025°31'918.3
2019-Jul-13 01:00N 59°55' E 025°49'1018.5
2019-Jul-13 00:28N 59°58' E 026°08'918.5
2019-Jul-13 00:01N 60°00' E 026°24'917.2
2019-Jul-12 23:30N 60°01' E 026°41'918.0
2019-Jul-12 23:00N 59°59' E 026°59'917.4
2019-Jul-12 22:29N 60°03' E 027°16'918.0
2019-Jul-12 22:01N 60°08' E 027°30'917.6
2019-Jul-12 21:30N 60°12' E 027°46'917.2
2019-Jul-12 21:01N 60°10' E 028°03'917.7
2019-Jul-12 20:30N 60°07' E 028°19'816.9
2019-Jul-12 20:00N 60°03' E 028°34'917.9
2019-Jul-12 19:30N 60°02' E 028°53'1017.6
2019-Jul-12 18:56N 60°02' E 029°12'1711.9
2019-Jul-12 17:31N 59°59' E 029°46'0 7.4
2019-Jul-12 17:30N 59°59' E 029°46'5 9.6
2019-Jul-12 17:00N 59°56' E 029°54'5 9.7
2019-Jul-12 16:30N 59°56' E 030°04'4 7.5
2019-Jul-12 16:00N 59°57' E 030°11'0 0.3
2019-Jul-12 15:29N 59°57' E 030°11'0 0.0
2019-Jul-12 14:56N 59°57' E 030°11'0 0.0
2019-Jul-12 14:29N 59°57' E 030°11'0 0.0
2019-Jul-12 13:59N 59°57' E 030°11'0 0.0
2019-Jul-12 13:29N 59°57' E 030°11'0 0.0
2019-Jul-12 12:59N 59°57' E 030°11'0 0.0
2019-Jul-12 12:29N 59°57' E 030°11'0 0.0
2019-Jul-12 11:59N 59°57' E 030°11'0 0.0
2019-Jul-12 11:29N 59°57' E 030°11'0 0.0
2019-Jul-12 10:59N 59°57' E 030°11'0 0.0
2019-Jul-12 10:29N 59°57' E 030°11'0 0.0
2019-Jul-12 09:59N 59°57' E 030°11'0 0.0
2019-Jul-12 09:29N 59°57' E 030°11'0 0.0
2019-Jul-12 08:59N 59°57' E 030°11'0 0.0
2019-Jul-12 08:29N 59°57' E 030°11'0 0.0
2019-Jul-12 07:59N 59°57' E 030°11'0 0.0
2019-Jul-12 07:29N 59°57' E 030°11'0 0.0
2019-Jul-12 06:59N 59°57' E 030°11'0 0.0
2019-Jul-12 06:29N 59°57' E 030°11'0 0.0
2019-Jul-12 05:59N 59°57' E 030°11'0 0.0
2019-Jul-12 05:29N 59°57' E 030°11'0 0.0
2019-Jul-12 04:59N 59°57' E 030°11'0 0.0
2019-Jul-12 04:29N 59°57' E 030°11'0 0.0
2019-Jul-12 03:59N 59°57' E 030°11'0 0.0
2019-Jul-12 03:29N 59°57' E 030°11'0 0.0
2019-Jul-12 02:56N 59°57' E 030°11'0 0.0
2019-Jul-12 01:59N 59°57' E 030°11'0 0.0
2019-Jul-12 01:26N 59°57' E 030°11'0 0.0
2019-Jul-12 00:59N 59°57' E 030°11'0 0.0
2019-Jul-12 00:29N 59°57' E 030°11'0 0.0
2019-Jul-11 23:59N 59°57' E 030°11'0 0.0
2019-Jul-11 23:29N 59°57' E 030°11'0 0.0
2019-Jul-11 22:59N 59°57' E 030°11'0 0.0
2019-Jul-11 22:29N 59°57' E 030°11'0 0.0
2019-Jul-11 21:59N 59°57' E 030°11'0 0.0
2019-Jul-11 21:29N 59°57' E 030°11'0 0.0
2019-Jul-11 20:59N 59°57' E 030°11'0 0.0
2019-Jul-11 20:29N 59°57' E 030°11'0 0.0
2019-Jul-11 19:59N 59°57' E 030°11'0 0.0
2019-Jul-11 19:29N 59°57' E 030°11'0 0.0
2019-Jul-11 18:59N 59°57' E 030°11'0 0.0
2019-Jul-11 18:29N 59°57' E 030°11'0 0.0
2019-Jul-11 17:59N 59°57' E 030°11'0 0.0
2019-Jul-11 17:29N 59°57' E 030°11'0 0.0
2019-Jul-11 16:59N 59°57' E 030°11'0 0.0
2019-Jul-11 16:29N 59°57' E 030°11'0 0.0
2019-Jul-11 15:59N 59°57' E 030°11'0 0.0
2019-Jul-11 15:29N 59°57' E 030°11'0 0.0
2019-Jul-11 14:59N 59°57' E 030°11'0 0.0
2019-Jul-11 14:29N 59°57' E 030°11'0 0.0
2019-Jul-11 13:59N 59°57' E 030°11'0 0.0
2019-Jul-11 13:29N 59°57' E 030°11'0 0.0
2019-Jul-11 12:59N 59°57' E 030°11'0 0.0
2019-Jul-11 12:29N 59°57' E 030°11'0 0.0
2019-Jul-11 11:59N 59°57' E 030°11'0 0.0
2019-Jul-11 11:29N 59°57' E 030°11'0 0.0
2019-Jul-11 10:59N 59°57' E 030°11'0 0.0
2019-Jul-11 10:26N 59°57' E 030°11'0 0.0
2019-Jul-11 09:59N 59°57' E 030°11'0 0.0
2019-Jul-11 09:29N 59°57' E 030°11'0 0.0
2019-Jul-11 08:59N 59°57' E 030°11'0 0.0
2019-Jul-11 08:29N 59°57' E 030°11'0 0.0
2019-Jul-11 07:56N 59°57' E 030°11'0 0.0
2019-Jul-11 07:29N 59°57' E 030°11'0 0.0
2019-Jul-11 06:59N 59°57' E 030°11'0 0.0
2019-Jul-11 06:26N 59°57' E 030°11'0 0.0
2019-Jul-11 05:59N 59°57' E 030°11'0 0.0
2019-Jul-11 05:29N 59°57' E 030°11'0 0.0
2019-Jul-11 04:59N 59°57' E 030°11'0 0.0
2019-Jul-11 04:29N 59°57' E 030°11'0 0.0
2019-Jul-11 04:01N 59°57' E 030°11'2 3.8
2019-Jul-11 03:30N 59°57' E 030°07'5 9.9
2019-Jul-11 03:01N 59°56' E 029°58'5 9.8
2019-Jul-11 02:30N 59°58' E 029°49'2510.1
2019-Jul-10 23:59N 60°02' E 028°58'715.0
2019-Jul-10 23:30N 60°02' E 028°44'815.2
2019-Jul-10 23:00N 60°03' E 028°29'715.1
2019-Jul-10 22:30N 60°07' E 028°16'815.2
2019-Jul-10 22:00N 60°09' E 028°01'815.2
2019-Jul-10 21:30N 60°11' E 027°47'815.5
2019-Jul-10 21:00N 60°07' E 027°33'815.4
2019-Jul-10 20:30N 60°03' E 027°20'815.6
2019-Jul-10 20:00N 59°59' E 027°07'815.4
2019-Jul-10 19:30N 59°59' E 026°52'816.1
2019-Jul-10 19:00N 59°59' E 026°36'815.9
2019-Jul-10 18:30N 59°57' E 026°20'816.0
2019-Jul-10 18:00N 59°55' E 026°05'816.0
2019-Jul-10 17:30N 59°52' E 025°50'816.0
2019-Jul-10 17:00N 59°50' E 025°35'816.1
2019-Jul-10 16:30N 59°50' E 025°19'816.4
2019-Jul-10 16:00N 59°48' E 025°03'815.7
2019-Jul-10 15:31N 59°44' E 024°50'816.0
2019-Jul-10 15:00N 59°37' E 024°41'714.7
2019-Jul-10 14:30N 59°30' E 024°45'3 6.5
2019-Jul-10 14:00N 59°27' E 024°46'0 0.0
2019-Jul-10 13:30N 59°27' E 024°46'0 0.0
2019-Jul-10 13:00N 59°27' E 024°46'0 0.0
2019-Jul-10 12:30N 59°27' E 024°46'0 0.0
2019-Jul-10 12:00N 59°27' E 024°46'0 0.0
2019-Jul-10 11:30N 59°27' E 024°46'0 0.0
2019-Jul-10 11:00N 59°27' E 024°46'0 0.0
2019-Jul-10 10:30N 59°27' E 024°46'0 0.0
2019-Jul-10 10:00N 59°27' E 024°46'0 0.0
2019-Jul-10 09:30N 59°27' E 024°46'0 0.0
2019-Jul-10 08:57N 59°27' E 024°46'0 0.0
2019-Jul-10 08:30N 59°27' E 024°46'0 0.0
2019-Jul-10 08:00N 59°27' E 024°46'0 0.0
2019-Jul-10 07:30N 59°27' E 024°46'0 0.0
2019-Jul-10 07:00N 59°27' E 024°46'0 0.0
2019-Jul-10 06:31N 59°27' E 024°46'1 2.8
2019-Jul-10 06:01N 59°28' E 024°46'612.0
2019-Jul-10 05:30N 59°30' E 024°34'714.5
2019-Jul-10 05:00N 59°30' E 024°20'815.3
2019-Jul-10 04:30N 59°30' E 024°05'815.7
2019-Jul-10 04:00N 59°30' E 023°49'816.0
2019-Jul-10 03:31N 59°30' E 023°33'916.0
2019-Jul-10 02:55N 59°31' E 023°15'615.7
2019-Jul-10 02:31N 59°29' E 023°03'1116.0
2019-Jul-10 01:49N 59°26' E 022°42'516.0
2019-Jul-10 01:29N 59°24' E 022°32'129 3.4
2019-Jul-08 12:00N 57°48' E 019°48'54 9.1 350 / 181002.0 13.0 15.0
2019-Jul-08 06:00N 58°42' E 020°00'58 9.4 350 / 211000.0 13.0 14.0
2019-Jul-07 23:46N 59°40' E 019°51'3 9.7
2019-Jul-07 23:30N 59°42' E 019°48'5 9.7
2019-Jul-07 23:00N 59°46' E 019°42'5 8.9
2019-Jul-07 22:30N 59°47' E 019°34'5 9.4
2019-Jul-07 21:58N 59°46' E 019°24'712.7
2019-Jul-07 21:24N 59°44' E 019°11'714.2
2019-Jul-07 20:55N 59°41' E 018°58'7 9.2
2019-Jul-07 20:09N 59°36' E 018°48'3 8.8
2019-Jul-07 19:50N 59°35' E 018°43'5 8.9
2019-Jul-07 19:18N 59°33' E 018°35'3 8.9
2019-Jul-07 18:58N 59°31' E 018°30'4 8.3
2019-Jul-07 18:30N 59°28' E 018°26'3 6.2
2019-Jul-07 18:00N 59°25' E 018°25'3 6.0
2019-Jul-07 17:30N 59°21' E 018°26'4 8.1
2019-Jul-07 17:00N 59°22' E 018°18'4 8.4
2019-Jul-07 16:30N 59°20' E 018°10'1 2.6
2019-Jul-07 15:57N 59°21' E 018°08'0 0.0
2019-Jul-07 15:27N 59°21' E 018°08'0 0.0
2019-Jul-07 14:57N 59°21' E 018°08'0 0.0
2019-Jul-07 14:27N 59°21' E 018°08'0 0.0
2019-Jul-07 13:57N 59°21' E 018°08'0 0.0
2019-Jul-07 13:30N 59°21' E 018°08'0 0.0
2019-Jul-07 12:51N 59°21' E 018°08'0 0.0
2019-Jul-07 12:27N 59°21' E 018°08'0 0.0
2019-Jul-07 11:57N 59°21' E 018°08'0 0.0
2019-Jul-07 11:27N 59°21' E 018°08'0 0.0
2019-Jul-07 10:57N 59°21' E 018°08'0 0.0
2019-Jul-07 10:21N 59°21' E 018°08'0 0.0
2019-Jul-07 09:57N 59°21' E 018°08'0 0.0
2019-Jul-07 09:27N 59°21' E 018°08'0 0.0
2019-Jul-07 08:57N 59°21' E 018°08'0 0.0
2019-Jul-07 08:30N 59°21' E 018°08'0 0.0
2019-Jul-07 07:57N 59°21' E 018°08'0 0.0
2019-Jul-07 07:27N 59°21' E 018°08'0 0.0
2019-Jul-07 07:00N 59°21' E 018°08'0 0.0
2019-Jul-07 06:27N 59°21' E 018°08'0 0.0
2019-Jul-07 05:57N 59°21' E 018°08'1 2.0
2019-Jul-07 05:30N 59°20' E 018°09'5 9.3
2019-Jul-07 05:00N 59°23' E 018°17'5 9.8
2019-Jul-07 04:31N 59°22' E 018°27'5 9.9
2019-Jul-07 04:00N 59°26' E 018°24'710.8
2019-Jul-07 03:19N 59°32' E 018°33'310.0
2019-Jul-07 03:00N 59°34' E 018°38'1111.1
2019-Jul-07 02:00N 59°40' E 018°57'714.8
2019-Jul-07 01:30N 59°44' E 019°09'816.0
2019-Jul-07 01:00N 59°47' E 019°24'713.9
2019-Jul-07 00:30N 59°48' E 019°37'1516.1
2019-Jul-06 23:34N 59°39' E 020°01'2916.5
2019-Jul-06 21:48N 59°33' E 020°58'517.1
2019-Jul-06 21:31N 59°31' E 021°07'816.8
2019-Jul-06 21:00N 59°28' E 021°22'816.3
2019-Jul-06 20:30N 59°26' E 021°38'1316.7
2019-Jul-06 19:43N 59°27' E 022°04'316.7
2019-Jul-06 19:30N 59°27' E 022°10'916.3
2019-Jul-06 18:58N 59°29' E 022°27'816.5
2019-Jul-06 18:30N 59°32' E 022°41'816.2
2019-Jul-06 18:00N 59°34' E 022°56'816.4
2019-Jul-06 17:30N 59°36' E 023°12'816.6
2019-Jul-06 17:00N 59°38' E 023°29'1117.2
2019-Jul-06 16:22N 59°41' E 023°49'617.4
2019-Jul-06 16:00N 59°43' E 024°01'917.4
2019-Jul-06 15:30N 59°45' E 024°18'917.2
2019-Jul-06 15:00N 59°48' E 024°34'917.0
2019-Jul-06 14:30N 59°52' E 024°48'816.4
2019-Jul-06 14:00N 59°60' E 024°57'713.6
2019-Jul-06 13:30N 60°06' E 024°54'3 5.5
2019-Jul-06 12:59N 60°09' E 024°55'0 0.0
2019-Jul-06 12:29N 60°09' E 024°55'0 0.0
2019-Jul-06 11:59N 60°09' E 024°55'0 0.0
2019-Jul-06 11:29N 60°09' E 024°55'0 0.0
2019-Jul-06 10:59N 60°09' E 024°55'0 0.0
2019-Jul-06 10:29N 60°09' E 024°55'0 0.0
2019-Jul-06 09:59N 60°09' E 024°55'0 0.0
2019-Jul-06 09:29N 60°09' E 024°55'0 0.0
2019-Jul-06 08:59N 60°09' E 024°55'0 0.0
2019-Jul-06 08:29N 60°09' E 024°55'0 0.0
2019-Jul-06 07:59N 60°09' E 024°55'0 0.0
2019-Jul-06 07:29N 60°09' E 024°55'0 0.0
2019-Jul-06 06:59N 60°09' E 024°55'0 0.0
2019-Jul-06 06:29N 60°09' E 024°55'0 0.0
2019-Jul-06 05:56N 60°09' E 024°55'0 0.0
2019-Jul-06 05:29N 60°09' E 024°55'0 0.0
2019-Jul-06 04:59N 60°09' E 024°55'0 0.0
2019-Jul-06 04:29N 60°09' E 024°55'0 0.0
2019-Jul-06 03:59N 60°09' E 024°55'0 0.2
2019-Jul-06 03:31N 60°09' E 024°55'2 4.4
2019-Jul-06 03:00N 60°07' E 024°54'713.6
2019-Jul-06 02:30N 60°00' E 024°58'1615.6
2019-Jul-06 01:30N 59°54' E 025°27'  

Dump ship's entire track history